createdAt,value
2022-08-05T00:00:52.452Z,5.32
2022-08-05T00:03:55.049Z,5.30
2022-08-05T00:07:00.017Z,5.15
2022-08-05T00:10:02.663Z,5.10
2022-08-05T00:13:05.282Z,5.23
2022-08-05T00:16:10.940Z,4.60
2022-08-05T00:19:15.129Z,4.82
2022-08-05T00:22:17.865Z,4.93
2022-08-05T00:25:20.799Z,4.35
2022-08-05T00:28:29.595Z,5.27
2022-08-05T00:31:53.719Z,4.72
2022-08-05T00:35:06.018Z,4.63
2022-08-05T00:38:09.999Z,4.55
2022-08-05T00:41:12.587Z,4.60
2022-08-05T00:44:17.532Z,4.20
2022-08-05T00:47:20.005Z,4.25
2022-08-05T00:50:25.521Z,4.30
2022-08-05T00:53:45.338Z,4.35
2022-08-05T00:56:51.702Z,4.60
2022-08-05T00:59:54.533Z,4.47
2022-08-05T01:02:58.029Z,4.05
2022-08-05T01:06:05.378Z,4.22
2022-08-05T01:09:08.478Z,3.95
2022-08-05T01:12:18.047Z,3.92
2022-08-05T01:15:36.166Z,4.20
2022-08-05T01:18:48.044Z,4.22
2022-08-05T01:22:24.298Z,3.95
2022-08-05T01:26:08.119Z,4.22
2022-08-05T01:29:41.085Z,4.05
2022-08-05T01:32:47.679Z,4.13
2022-08-05T01:35:53.286Z,3.88
2022-08-05T01:39:00.985Z,3.60
2022-08-05T01:42:11.045Z,3.85
2022-08-05T01:45:17.096Z,3.95
2022-08-05T01:48:20.982Z,3.67
2022-08-05T01:51:24.341Z,3.92
2022-08-05T01:54:45.881Z,3.60
2022-08-05T01:58:29.945Z,3.88
2022-08-05T02:01:14.841Z,3.70
2022-08-05T02:04:28.405Z,3.50
2022-08-05T02:07:35.032Z,4.00
2022-08-05T02:10:44.728Z,3.38
2022-08-05T02:13:58.950Z,4.03
2022-08-05T02:17:29.686Z,3.45
2022-08-05T02:20:44.279Z,3.57
2022-08-05T02:23:53.694Z,3.50
2022-08-05T02:27:00.370Z,3.75
2022-08-05T02:30:13.948Z,3.60
2022-08-05T02:33:24.552Z,3.70
2022-08-05T02:36:50.665Z,4.07
2022-08-05T02:39:54.002Z,3.70
2022-08-05T02:42:57.367Z,3.63
2022-08-05T02:46:01.372Z,3.83
2022-08-05T02:49:06.535Z,3.53
2022-08-05T02:52:29.415Z,3.70
2022-08-05T02:55:54.093Z,3.75
2022-08-05T02:58:59.528Z,3.45
2022-08-05T03:02:04.519Z,3.63
2022-08-05T03:05:10.200Z,3.22
2022-08-05T03:08:13.853Z,3.70
2022-08-05T03:11:54.309Z,3.53
2022-08-05T03:14:48.182Z,3.30
2022-08-05T03:17:56.164Z,3.70
2022-08-05T03:21:00.559Z,3.40
2022-08-05T03:24:04.002Z,3.40
2022-08-05T03:27:06.922Z,3.05
2022-08-05T03:30:11.376Z,3.38
2022-08-05T03:33:13.973Z,3.63
2022-08-05T03:36:17.600Z,3.22
2022-08-05T03:39:38.127Z,3.10
2022-08-05T03:42:52.568Z,3.17
2022-08-05T03:45:57.547Z,3.38
2022-08-05T03:49:02.274Z,3.47
2022-08-05T03:52:48.603Z,3.30
2022-08-05T03:56:05.580Z,3.70
2022-08-05T03:59:06.396Z,3.30
2022-08-05T04:02:14.857Z,3.83
2022-08-05T04:05:20.767Z,3.70
2022-08-05T04:08:34.996Z,3.83
2022-08-05T04:11:47.261Z,3.90
2022-08-05T04:14:50.746Z,3.78
2022-08-05T04:17:56.308Z,3.70
2022-08-05T04:21:00.144Z,4.07
2022-08-05T04:24:06.633Z,3.90
2022-08-05T04:27:13.202Z,4.30
2022-08-05T04:30:15.993Z,4.75
2022-08-05T04:33:36.400Z,4.07
2022-08-05T04:36:49.664Z,4.60
2022-08-05T04:39:55.704Z,4.63
2022-08-05T04:42:58.259Z,4.47
2022-08-05T04:46:01.011Z,4.05
2022-08-05T04:49:03.725Z,4.18
2022-08-05T04:52:07.652Z,4.50
2022-08-05T04:55:14.279Z,5.03
2022-08-05T04:58:21.634Z,4.57
2022-08-05T05:02:06.685Z,4.53
2022-08-05T05:04:49.909Z,4.63
2022-08-05T05:08:01.964Z,4.72
2022-08-05T05:11:05.798Z,4.07
2022-08-05T05:14:08.701Z,3.87
2022-08-05T05:17:23.466Z,3.90
2022-08-05T05:20:28.657Z,3.85
2022-08-05T05:24:01.840Z,4.40
2022-08-05T05:26:54.662Z,4.00
2022-08-05T05:30:04.100Z,4.30
2022-08-05T05:33:16.108Z,3.70
2022-08-05T05:36:20.092Z,3.80
2022-08-05T05:39:26.000Z,3.95
2022-08-05T05:42:37.080Z,3.90
2022-08-05T05:45:39.915Z,3.37
2022-08-05T05:48:50.861Z,3.80
2022-08-05T05:51:56.821Z,3.35
2022-08-05T05:55:00.885Z,3.40
2022-08-05T05:58:04.781Z,3.63
2022-08-05T06:01:12.936Z,3.47
2022-08-05T06:04:17.770Z,3.70
2022-08-05T06:07:41.515Z,4.00
2022-08-05T06:10:52.655Z,4.75
2022-08-05T06:13:55.620Z,4.95
2022-08-05T06:16:58.520Z,5.57
2022-08-05T06:20:01.489Z,5.25
2022-08-05T06:23:04.263Z,5.57
2022-08-05T06:26:21.026Z,5.13
2022-08-05T06:29:49.317Z,5.53
2022-08-05T06:32:46.974Z,5.80
2022-08-05T06:36:08.187Z,4.78
2022-08-05T06:39:12.078Z,5.15
2022-08-05T06:42:16.664Z,4.40
2022-08-05T06:46:02.983Z,4.40
2022-08-05T06:48:55.379Z,4.07
2022-08-05T06:52:01.743Z,4.32
2022-08-05T06:55:04.726Z,4.00
2022-08-05T06:58:29.213Z,4.00
2022-08-05T07:01:32.746Z,3.80
2022-08-05T07:04:35.486Z,4.00
2022-08-05T07:07:43.685Z,3.45
2022-08-05T07:10:53.279Z,3.40
2022-08-05T07:14:20.541Z,3.95
2022-08-05T07:18:02.123Z,3.40
2022-08-05T07:20:55.764Z,3.70
2022-08-05T07:23:58.445Z,3.63
2022-08-05T07:27:04.803Z,3.25
2022-08-05T07:30:25.452Z,3.28
2022-08-05T07:33:36.464Z,3.20
2022-08-05T07:36:40.155Z,2.93
2022-08-05T07:40:25.994Z,3.22
2022-08-05T07:43:14.594Z,2.92
2022-08-05T07:46:26.154Z,3.30
2022-08-05T07:49:28.811Z,3.20
2022-08-05T07:52:31.500Z,3.20
2022-08-05T07:56:05.159Z,3.20
2022-08-05T07:58:58.746Z,3.58
2022-08-05T08:02:03.230Z,3.25
2022-08-05T08:05:06.429Z,3.10
2022-08-05T08:08:12.443Z,3.50
2022-08-05T08:11:15.875Z,3.35
2022-08-05T08:14:19.068Z,3.38
2022-08-05T08:17:21.988Z,3.40
2022-08-05T08:20:59.981Z,3.58
2022-08-05T08:24:03.164Z,3.40
2022-08-05T08:27:07.453Z,3.33
2022-08-05T08:30:19.057Z,3.55
2022-08-05T08:33:35.987Z,3.78
2022-08-05T08:36:50.181Z,3.40
2022-08-05T08:39:55.173Z,3.60
2022-08-05T08:42:58.537Z,3.28
2022-08-05T08:46:21.772Z,3.50
2022-08-05T08:50:12.880Z,3.20
2022-08-05T08:52:53.349Z,3.33
2022-08-05T08:56:03.788Z,3.33
2022-08-05T08:59:14.945Z,3.42
2022-08-05T09:02:24.269Z,3.47
2022-08-05T09:05:38.282Z,3.10
2022-08-05T09:08:52.243Z,3.78
2022-08-05T09:12:00.206Z,3.60
2022-08-05T09:15:09.085Z,3.45
2022-08-05T09:18:13.261Z,3.47
2022-08-05T09:21:21.248Z,3.58
2022-08-05T09:24:38.774Z,3.70
2022-08-05T09:28:05.428Z,3.77
2022-08-05T09:31:23.244Z,3.38
2022-08-05T09:34:47.315Z,3.38
2022-08-05T09:38:16.403Z,3.70
2022-08-05T09:41:17.244Z,3.30
2022-08-05T09:44:36.799Z,3.90
2022-08-05T09:47:54.938Z,3.35
2022-08-05T09:51:04.460Z,3.85
2022-08-05T09:54:31.149Z,3.83
2022-08-05T09:57:47.758Z,3.30
2022-08-05T10:01:13.290Z,3.50
2022-08-05T10:04:18.448Z,3.08
2022-08-05T10:08:11.196Z,3.30
2022-08-05T10:10:54.496Z,3.25
2022-08-05T10:13:57.474Z,3.22
2022-08-05T10:17:37.397Z,2.90
2022-08-05T10:20:56.618Z,3.40
2022-08-05T10:24:00.979Z,3.53
2022-08-05T10:27:04.665Z,3.58
2022-08-05T10:31:19.891Z,3.50
2022-08-05T10:33:35.325Z,3.33
2022-08-05T10:36:41.031Z,3.75
2022-08-05T10:40:03.401Z,3.20
2022-08-05T10:43:18.208Z,3.40
2022-08-05T10:46:51.124Z,3.40
2022-08-05T10:50:33.009Z,3.40
2022-08-05T10:53:42.614Z,3.30
2022-08-05T10:56:52.776Z,3.40
2022-08-05T11:00:17.871Z,3.55
2022-08-05T11:03:25.599Z,3.20
2022-08-05T11:06:30.877Z,3.57
2022-08-05T11:10:09.663Z,3.20
2022-08-05T11:13:39.878Z,3.53
2022-08-05T11:17:56.870Z,3.95
2022-08-05T11:20:57.231Z,3.40
2022-08-05T11:24:14.642Z,3.10
2022-08-05T11:27:50.899Z,3.65
2022-08-05T11:31:06.077Z,3.22
2022-08-05T11:34:09.354Z,3.30
2022-08-05T11:38:29.748Z,2.90
2022-08-05T11:41:54.792Z,3.60
2022-08-05T11:44:54.153Z,3.25
2022-08-05T11:47:57.813Z,3.30
2022-08-05T11:51:02.117Z,3.50
2022-08-05T11:54:05.178Z,3.47
2022-08-05T11:57:25.169Z,3.00
2022-08-05T12:00:30.629Z,3.10
2022-08-05T12:03:43.811Z,3.13
2022-08-05T12:07:00.627Z,3.47
2022-08-05T12:10:09.215Z,3.13
2022-08-05T12:13:15.933Z,3.00
2022-08-05T12:16:25.593Z,3.30
2022-08-05T12:20:17.647Z,3.38
2022-08-05T12:22:52.390Z,3.50
2022-08-05T12:25:56.433Z,3.50
2022-08-05T12:28:59.596Z,3.47
2022-08-05T12:32:05.820Z,3.65
2022-08-05T12:35:21.491Z,3.35
2022-08-05T12:38:30.196Z,3.30
2022-08-05T12:41:36.129Z,3.25
2022-08-05T12:44:47.646Z,3.60
2022-08-05T12:48:01.345Z,2.90
2022-08-05T12:52:10.239Z,3.17
2022-08-05T12:54:41.973Z,3.13
2022-08-05T12:58:39.150Z,3.33
2022-08-05T13:02:03.022Z,3.30
2022-08-05T13:04:32.738Z,2.95
2022-08-05T13:07:59.734Z,3.33
2022-08-05T13:11:02.299Z,3.22
2022-08-05T13:14:35.825Z,3.03
2022-08-05T13:17:41.413Z,3.60
2022-08-05T13:20:44.905Z,3.40
2022-08-05T13:23:50.823Z,3.40
2022-08-05T13:26:54.779Z,3.30
2022-08-05T13:29:59.607Z,3.10
2022-08-05T13:34:21.464Z,3.20
2022-08-05T13:36:44.255Z,3.20
2022-08-05T13:40:16.173Z,3.30
2022-08-05T13:43:12.063Z,3.05
2022-08-05T13:46:16.311Z,3.13
2022-08-05T13:49:19.042Z,3.40
2022-08-05T13:52:29.331Z,3.30
2022-08-05T13:55:41.820Z,3.10
2022-08-05T13:58:53.476Z,3.47
2022-08-05T14:02:00.141Z,3.22
2022-08-05T14:05:15.105Z,3.53
2022-08-05T14:08:27.975Z,3.25
2022-08-05T14:12:04.126Z,3.42
2022-08-05T14:15:05.859Z,3.75
2022-08-05T14:18:25.283Z,3.30
2022-08-05T14:22:09.659Z,3.07
2022-08-05T14:24:50.696Z,3.17
2022-08-05T14:27:53.672Z,3.40
2022-08-05T14:30:57.411Z,3.55
2022-08-05T14:34:00.874Z,3.03
2022-08-05T14:37:05.160Z,3.30
2022-08-05T14:40:09.095Z,3.42
2022-08-05T14:43:11.723Z,3.28
2022-08-05T14:46:17.511Z,3.22
2022-08-05T14:49:22.671Z,3.67
2022-08-05T14:52:50.506Z,3.13
2022-08-05T14:55:52.309Z,2.92
2022-08-05T14:58:55.845Z,2.95
2022-08-05T15:01:58.676Z,2.80
2022-08-05T15:05:02.554Z,3.03
2022-08-05T15:08:58.121Z,3.27
2022-08-05T15:11:52.527Z,3.22
2022-08-05T15:14:56.114Z,2.92
2022-08-05T15:17:58.747Z,3.10
2022-08-05T15:21:07.726Z,3.20
2022-08-05T15:24:10.611Z,2.90
2022-08-05T15:27:13.462Z,3.40
2022-08-05T15:30:16.938Z,3.25
2022-08-05T15:34:18.907Z,3.15
2022-08-05T15:36:42.281Z,3.20
2022-08-05T15:40:58.697Z,3.37
2022-08-05T15:43:12.581Z,3.00
2022-08-05T15:46:20.573Z,3.00
2022-08-05T15:49:52.001Z,3.22
2022-08-05T15:52:52.641Z,3.10
2022-08-05T15:56:01.456Z,3.30
2022-08-05T15:59:06.942Z,3.58
2022-08-05T16:02:14.361Z,3.17
2022-08-05T16:05:17.790Z,3.22
2022-08-05T16:08:23.152Z,2.80
2022-08-05T16:11:42.307Z,2.83
2022-08-05T16:14:45.970Z,3.30
2022-08-05T16:17:57.356Z,2.92
2022-08-05T16:21:04.220Z,3.10
2022-08-05T16:24:13.017Z,3.03
2022-08-05T16:27:47.147Z,2.87
2022-08-05T16:30:53.158Z,3.00
2022-08-05T16:33:56.683Z,3.15
2022-08-05T16:36:59.208Z,3.03
2022-08-05T16:40:04.252Z,2.90
2022-08-05T16:43:09.491Z,3.17
2022-08-05T16:46:24.324Z,3.15
2022-08-05T16:49:27.465Z,3.00
2022-08-05T16:52:32.699Z,3.28
2022-08-05T16:55:46.420Z,2.90
2022-08-05T16:58:50.756Z,3.57
2022-08-05T17:01:55.878Z,3.22
2022-08-05T17:04:58.912Z,3.00
2022-08-05T17:08:01.444Z,3.08
2022-08-05T17:11:04.251Z,3.10
2022-08-05T17:14:13.006Z,3.20
2022-08-05T17:17:42.646Z,3.45
2022-08-05T17:20:45.580Z,3.28
2022-08-05T17:24:04.503Z,3.47
2022-08-05T17:27:09.743Z,3.20
2022-08-05T17:30:19.083Z,3.30
2022-08-05T17:33:38.983Z,3.22
2022-08-05T17:36:50.764Z,3.33
2022-08-05T17:39:53.267Z,3.40
2022-08-05T17:42:58.772Z,3.35
2022-08-05T17:46:01.367Z,3.80
2022-08-05T17:49:05.155Z,2.97
2022-08-05T17:52:09.413Z,3.05
2022-08-05T17:55:14.342Z,3.78
2022-08-05T17:58:21.643Z,3.45
2022-08-05T18:01:47.213Z,3.00
2022-08-05T18:04:55.049Z,3.45
2022-08-05T18:07:57.839Z,3.40
2022-08-05T18:11:00.430Z,3.20
2022-08-05T18:14:13.379Z,2.95
2022-08-05T18:18:00.987Z,3.50
2022-08-05T18:20:46.934Z,3.55
2022-08-05T18:23:53.436Z,3.25
2022-08-05T18:26:56.689Z,3.55
2022-08-05T18:30:00.953Z,3.30
2022-08-05T18:33:03.765Z,3.27
2022-08-05T18:36:11.878Z,3.10
2022-08-05T18:39:42.280Z,3.30
2022-08-05T18:42:41.332Z,3.60
2022-08-05T18:45:44.691Z,3.45
2022-08-05T18:48:51.932Z,3.10
2022-08-05T18:52:14.094Z,3.30
2022-08-05T18:55:17.372Z,2.92
2022-08-05T18:58:27.360Z,3.28
2022-08-05T19:01:33.445Z,3.15
2022-08-05T19:05:01.198Z,3.17
2022-08-05T19:08:12.292Z,3.30
2022-08-05T19:11:27.995Z,3.20
2022-08-05T19:14:44.910Z,2.92
2022-08-05T19:18:08.704Z,3.42
2022-08-05T19:21:12.590Z,3.50
2022-08-05T19:24:15.067Z,3.30
2022-08-05T19:27:17.848Z,3.10
2022-08-05T19:30:22.464Z,2.90
2022-08-05T19:33:34.051Z,2.92
2022-08-05T19:36:39.706Z,2.90
2022-08-05T19:39:50.947Z,3.38
2022-08-05T19:43:00.797Z,3.10
2022-08-05T19:46:29.035Z,2.88
2022-08-05T19:49:30.628Z,2.90
2022-08-05T19:52:33.361Z,3.50
2022-08-05T19:56:14.630Z,3.17
2022-08-05T19:58:59.039Z,3.15
2022-08-05T20:02:21.930Z,3.00
2022-08-05T20:05:49.765Z,2.92
2022-08-05T20:08:52.615Z,3.13
2022-08-05T20:11:55.886Z,3.45
2022-08-05T20:14:58.759Z,3.20
2022-08-05T20:18:02.314Z,3.50
2022-08-05T20:21:07.323Z,3.30
2022-08-05T20:24:11.374Z,3.40
2022-08-05T20:27:14.100Z,3.08
2022-08-05T20:30:19.794Z,3.30
2022-08-05T20:33:22.822Z,3.45
2022-08-05T20:36:25.974Z,3.20
2022-08-05T20:39:35.624Z,3.57
2022-08-05T20:42:40.365Z,3.67
2022-08-05T20:45:56.401Z,3.33
2022-08-05T20:48:59.872Z,4.25
2022-08-05T20:52:05.473Z,3.90
2022-08-05T20:55:56.219Z,4.23
2022-08-05T20:58:32.990Z,4.72
2022-08-05T21:01:38.282Z,4.72
2022-08-05T21:04:41.680Z,4.60
2022-08-05T21:07:51.667Z,4.78
2022-08-05T21:10:58.487Z,5.53
2022-08-05T21:14:01.616Z,5.57
2022-08-05T21:17:05.261Z,5.43
2022-08-05T21:20:10.004Z,5.72
2022-08-05T21:23:13.611Z,5.80
2022-08-05T21:26:16.746Z,6.23
2022-08-05T21:29:20.253Z,6.35
2022-08-05T21:32:29.233Z,6.32
2022-08-05T21:35:43.749Z,6.30
2022-08-05T21:38:55.564Z,7.00
2022-08-05T21:42:01.199Z,5.90
2022-08-05T21:45:05.147Z,6.20
2022-08-05T21:48:13.809Z,7.10
2022-08-05T21:51:25.018Z,7.00
2022-08-05T21:54:41.424Z,7.05
2022-08-05T21:57:44.299Z,7.63
2022-08-05T22:00:51.260Z,7.30
2022-08-05T22:03:54.662Z,7.40
2022-08-05T22:06:57.155Z,6.50
2022-08-05T22:09:59.978Z,7.43
2022-08-05T22:13:08.873Z,7.20
2022-08-05T22:16:41.999Z,7.13
2022-08-05T22:20:00.390Z,6.53
2022-08-05T22:24:02.792Z,6.65
2022-08-05T22:27:06.833Z,7.18
2022-08-05T22:30:14.172Z,7.30
2022-08-05T22:33:16.806Z,7.20
2022-08-05T22:36:39.286Z,7.47
2022-08-05T22:39:43.596Z,7.13
2022-08-05T22:42:57.963Z,7.30
2022-08-05T22:46:03.443Z,7.50
2022-08-05T22:50:17.289Z,7.20
2022-08-05T22:52:36.067Z,7.05
2022-08-05T22:55:56.587Z,6.95
2022-08-05T22:59:03.114Z,7.63
2022-08-05T23:02:07.461Z,7.20
2022-08-05T23:05:10.461Z,8.05
2022-08-05T23:08:13.386Z,8.10
2022-08-05T23:11:16.775Z,7.68
2022-08-05T23:14:22.385Z,7.97
2022-08-05T23:17:34.613Z,7.33
2022-08-05T23:20:40.242Z,7.97
2022-08-05T23:23:45.802Z,7.43
2022-08-05T23:26:48.737Z,8.18
2022-08-05T23:29:51.516Z,7.25
2022-08-05T23:32:54.151Z,6.97
2022-08-05T23:35:56.847Z,8.20
2022-08-05T23:38:59.555Z,7.40
2022-08-05T23:42:02.290Z,7.50
2022-08-05T23:45:14.155Z,7.05
2022-08-05T23:48:18.167Z,6.90
2022-08-05T23:51:22.312Z,7.88
2022-08-05T23:54:34.059Z,7.43
2022-08-05T23:57:40.823Z,7.22
